Map

Track Data

SID SEASON NUMBER BASIN SUBBASIN NAME ISO_TIME NATURE LAT LON WMO_WIND WMO_PRES WMO_AGENCY TRACK_TYPE DIST2LAND LANDFALL IFLAG USA_AGENCY USA_ATCF_ID USA_LAT USA_LON USA_RECORD USA_STATUS USA_WIND USA_PRES USA_SSHS USA_R34_NE USA_R34_SE USA_R34_SW USA_R34_NW USA_R50_NE USA_R50_SE USA_R50_SW USA_R50_NW USA_R64_NE USA_R64_SE USA_R64_SW USA_R64_NW USA_POCI USA_ROCI USA_RMW USA_EYE TOKYO_LAT TOKYO_LON TOKYO_GRADE TOKYO_WIND TOKYO_PRES TOKYO_R50_DIR TOKYO_R50_LONG TOKYO_R50_SHORT TOKYO_R30_DIR TOKYO_R30_LONG TOKYO_R30_SHORT TOKYO_LAND CMA_LAT CMA_LON CMA_CAT CMA_WIND CMA_PRES HKO_LAT HKO_LON HKO_CAT HKO_WIND HKO_PRES NEWDELHI_LAT NEWDELHI_LON NEWDELHI_GRADE NEWDELHI_WIND NEWDELHI_PRES NEWDELHI_CI NEWDELHI_DP NEWDELHI_POCI REUNION_LAT REUNION_LON REUNION_TYPE REUNION_WIND REUNION_PRES REUNION_TNUM REUNION_CI REUNION_RMW REUNION_R34_NE REUNION_R34_SE REUNION_R34_SW REUNION_R34_NW REUNION_R50_NE REUNION_R50_SE REUNION_R50_SW REUNION_R50_NW REUNION_R64_NE REUNION_R64_SE REUNION_R64_SW REUNION_R64_NW BOM_LAT BOM_LON BOM_TYPE BOM_WIND BOM_PRES BOM_TNUM BOM_CI BOM_RMW BOM_R34_NE BOM_R34_SE BOM_R34_SW BOM_R34_NW BOM_R50_NE BOM_R50_SE BOM_R50_SW BOM_R50_NW BOM_R64_NE BOM_R64_SE BOM_R64_SW BOM_R64_NW BOM_ROCI BOM_POCI BOM_EYE BOM_POS_METHOD BOM_PRES_METHOD NADI_LAT NADI_LON NADI_CAT NADI_WIND NADI_PRES WELLINGTON_LAT WELLINGTON_LON WELLINGTON_WIND WELLINGTON_PRES DS824_LAT DS824_LON DS824_STAGE DS824_WIND DS824_PRES TD9636_LAT TD9636_LON TD9636_STAGE TD9636_WIND TD9636_PRES TD9635_LAT TD9635_LON TD9635_WIND TD9635_PRES TD9635_ROCI NEUMANN_LAT NEUMANN_LON NEUMANN_CLASS NEUMANN_WIND NEUMANN_PRES MLC_LAT MLC_LON MLC_CLASS MLC_WIND MLC_PRES USA_GUST BOM_GUST BOM_GUST_PER REUNION_GUST REUNION_GUST_PER USA_SEAHGT USA_SEARAD_NE USA_SEARAD_SE USA_SEARAD_SW USA_SEARAD_NW STORM_SPEED STORM_DIR
1858052S12061 1858 2 SI MM NOT_NAMED 1858-02-21 06:00:00 NR -12.4000 60.5000 reunion main 912 898 _____O________ -1 -12.4000 60.5000 99 9.90000 3 229
1858052S12061 1858 2 SI MM NOT_NAMED 1858-02-21 09:00:00 NR -12.4897 60.3894 main 898 883 _____P________ -1 -12.4897 60.3894 99 3 230
1858052S12061 1858 2 SI MM NOT_NAMED 1858-02-21 12:00:00 NR -12.5827 60.2762 main 883 870 _____P________ -1 -12.5827 60.2762 99 3 230
1858052S12061 1858 2 SI MM NOT_NAMED 1858-02-21 15:00:00 NR -12.6824 60.1579 main 870 856 _____P________ -1 -12.6824 60.1579 99 3 221
1858052S12061 1858 2 SI MM NOT_NAMED 1858-02-21 18:00:00 NR -12.7938 60.0855 main 856 842 _____P____O___ -1 -12.7923 60.0319 99 -12.8000 60.3000 7 3 217
1858052S12061 1858 2 SI MM NOT_NAMED 1858-02-21 21:00:00 NR -12.9167 59.9758 main 842 825 _____P____P___ -1 -12.9156 59.8957 99 -12.9188 60.1359 7 4 222
1858052S12061 1858 2 SI MM NOT_NAMED 1858-02-22 00:00:00 NR -13.0533 59.8413 main 814 801 _____P____P___ -1 -13.0557 59.7467 99 -13.0501 59.9675 7 4 224
1858052S12061 1858 2 SI MM NOT_NAMED 1858-02-22 03:00:00 NR -13.2112 59.6863 main 801 773 _____P____P___ -1 -13.2161 59.5824 99 -13.2063 59.7903 7 5 224
1858052S12061 1858 2 SI MM NOT_NAMED 1858-02-22 06:00:00 NR -13.4000 59.5000 reunion main 773 747 _____O____O___ -1 -13.4000 59.4000 99 9.90000 -13.4000 59.6000 7 6 223
1858052S12061 1858 2 SI MM NOT_NAMED 1858-02-22 09:00:00 NR -13.6243 59.2957 main 747 709 _____P____P___ -1 -13.6096 59.1980 99 -13.6390 59.3934 7 6 221
1858052S12061 1858 2 SI MM NOT_NAMED 1858-02-22 12:00:00 NR -13.8773 59.0757 main 709 683 _____P____P___ -1 -13.8422 58.9788 99 -13.9125 59.1725 7 7 220
1858052S12061 1858 2 SI MM NOT_NAMED 1858-02-22 15:00:00 NR -14.1492 58.8431 main 681 644 _____P____P___ -1 -14.0938 58.7460 99 -14.2047 58.9403 7 7 220
1858052S12061 1858 2 SI MM NOT_NAMED 1858-02-22 18:00:00 NR -14.4302 58.6015 main 644 608 _____P____O___ -1 -14.3604 58.5029 99 -14.5000 58.7000 7 7 220
1858052S12061 1858 2 SI MM NOT_NAMED 1858-02-22 21:00:00 NR -14.7066 58.3551 main 608 572 _____P____P___ -1 -14.6383 58.2532 99 -14.7750 58.4570 7 7 221
1858052S12061 1858 2 SI MM NOT_NAMED 1858-02-23 00:00:00 NR -14.9867 58.1039 main 572 537 _____P____P___ -1 -14.9234 58.0005 99 -15.0499 58.2073 7 7 221
1858052S12061 1858 2 SI MM NOT_NAMED 1858-02-23 03:00:00 NR -15.2684 57.8510 main 537 514 _____P____P___ -1 -15.2119 57.7482 99 -15.3249 57.9539 7 7 221
1858052S12061 1858 2 SI MM NOT_NAMED 1858-02-23 06:00:00 NR -15.5500 57.6000 reunion main 514 481 _____O____O___ -1 -15.5000 57.5000 99 9.90000 -15.6000 57.7000 7 7 221
1858052S12061 1858 2 SI MM NOT_NAMED 1858-02-23 09:00:00 NR -15.8215 57.3512 main 481 449 _____P____P___ -1 -15.7722 57.2606 99 -15.8709 57.4417 7 7 221
1858052S12061 1858 2 SI MM NOT_NAMED 1858-02-23 12:00:00 NR -16.0946 57.1036 main 449 418 _____P____P___ -1 -16.0468 57.0223 99 -16.1425 57.1848 7 7 221
1858052S12061 1858 2 SI MM NOT_NAMED 1858-02-23 15:00:00 NR -16.3704 56.8610 main 418 400 _____P____P___ -1 -16.3230 56.7865 99 -16.4178 56.9355 7 7 219
1858052S12061 1858 2 SI MM NOT_NAMED 1858-02-23 18:00:00 NR -16.6500 56.6274 main 402 373 _____P____O___ -1 -16.5999 56.5548 99 -16.7000 56.7000 7 7 218
1858052S12061 1858 2 SI MM NOT_NAMED 1858-02-23 21:00:00 NR -16.9409 56.4031 main 376 352 _____P____P___ -1 -16.8769 56.3287 99 -17.0049 56.4774 7 7 216
1858052S12061 1858 2 SI MM NOT_NAMED 1858-02-24 00:00:00 NR -17.2340 56.1899 main 352 330 _____P____P___ -1 -17.1531 56.1098 99 -17.3149 56.2699 7 7 214
1858052S12061 1858 2 SI MM NOT_NAMED 1858-02-24 03:00:00 NR -17.5226 55.9886 main 330 313 _____P____P___ -1 -17.4277 55.8997 99 -17.6174 56.0775 7 7 213
1858052S12061 1858 2 SI MM NOT_NAMED 1858-02-24 06:00:00 NR -17.8000 55.8000 reunion main 313 301 _____O____O___ -1 -17.7000 55.7000 99 9.90000 -17.9000 55.9000 7 6 213
1858052S12061 1858 2 SI MM NOT_NAMED 1858-02-24 09:00:00 NR -18.0515 55.6236 main 299 290 _____P____P___ -1 -17.9688 55.5080 99 -18.1342 55.7393 7 6 213
1858052S12061 1858 2 SI MM NOT_NAMED 1858-02-24 12:00:00 NR -18.2928 55.4590 main 290 279 _____P____P___ -1 -18.2358 55.3261 99 -18.3498 55.5919 7 6 212
1858052S12061 1858 2 SI MM NOT_NAMED 1858-02-24 15:00:00 NR -18.5333 55.3010 main 279 246 _____P____P___ -1 -18.5011 55.1534 99 -18.5655 55.4486 7 6 211
1858052S12061 1858 2 SI MM NOT_NAMED 1858-02-24 18:00:00 NR -18.7822 55.1445 main 246 225 _____P____O___ -1 -18.7645 54.9890 99 -18.8000 55.3000 7 6 210
1858052S12061 1858 2 SI MM NOT_NAMED 1858-02-24 21:00:00 NR -19.0564 54.9803 main 214 194 _____P____P___ -1 -19.0261 54.8323 99 -19.0866 55.1282 7 6 209
1858052S12061 1858 2 SI MM NOT_NAMED 1858-02-25 00:00:00 NR -19.3392 54.8163 main 197 168 _____P____P___ -1 -19.2859 54.6825 99 -19.3925 54.9501 7 6 208
1858052S12061 1858 2 SI MM NOT_NAMED 1858-02-25 03:00:00 NR -19.6231 54.6553 main 168 148 _____P____P___ -1 -19.5439 54.5386 99 -19.7022 54.7719 7 6 208
1858052S12061 1858 2 SI MM NOT_NAMED 1858-02-25 06:00:00 NR -19.9000 54.5000 reunion main 148 129 _____O____O___ -1 -19.8000 54.4000 99 9.90000 -20.0000 54.6000 7 6 208
1858052S12061 1858 2 SI MM NOT_NAMED 1858-02-25 09:00:00 NR -20.1672 54.3429 main 137 129 _____P____P___ -1 -20.0660 54.2514 99 -20.2684 54.4345 7 6 209
1858052S12061 1858 2 SI MM NOT_NAMED 1858-02-25 12:00:00 NR -20.4269 54.1927 main 130 122 _____P____P___ -1 -20.3314 54.1080 99 -20.5225 54.2773 7 6 208
1858052S12061 1858 2 SI MM NOT_NAMED 1858-02-25 15:00:00 NR -20.6797 54.0510 main 122 122 _____P____P___ -1 -20.5941 53.9706 99 -20.7653 54.1315 7 6 207
1858052S12061 1858 2 SI MM NOT_NAMED 1858-02-25 18:00:00 NR -20.9262 53.9200 main 136 134 _____P____O___ -1 -20.8523 53.8400 99 -21.0000 54.0000 7 5 206
1858052S12061 1858 2 SI MM NOT_NAMED 1858-02-25 21:00:00 NR -21.1667 53.8008 main 145 145 _____P____P___ -1 -21.1040 53.7168 99 -21.2294 53.8848 7 5 205
1858052S12061 1858 2 SI MM NOT_NAMED 1858-02-26 00:00:00 NR -21.3934 53.6794 main 158 158 _____P____P___ -1 -21.3471 53.6019 99 -21.4550 53.7827 7 5 207
1858052S12061 1858 2 SI MM NOT_NAMED 1858-02-26 03:00:00 NR -21.6126 53.5604 main 174 174 _____P____P___ -1 -21.5798 53.4961 99 -21.6781 53.6892 7 5 208
1858052S12061 1858 2 SI MM NOT_NAMED 1858-02-26 06:00:00 NR -21.8200 53.4400 reunion main 202 202 _____O____O___ -1 -21.8000 53.4000 99 9.90000 -21.9000 53.6000 7 5 210
1858052S12061 1858 2 SI MM NOT_NAMED 1858-02-26 09:00:00 NR -22.0065 53.3142 main 220 220 _____P________ -1 -22.0065 53.3142 99 7 4 206
1858052S12061 1858 2 SI MM NOT_NAMED 1858-02-26 12:00:00 NR -22.2003 53.2377 main 239 239 _____P________ -1 -22.2003 53.2377 99 7 4 200
1858052S12061 1858 2 SI MM NOT_NAMED 1858-02-26 15:00:00 NR -22.3834 53.1692 main 249 249 _____P________ -1 -22.3834 53.1692 99 7 4 198
1858052S12061 1858 2 SI MM NOT_NAMED 1858-02-26 18:00:00 NR -22.5575 53.1074 main 269 269 _____P________ -1 -22.5575 53.1074 99 4 198
1858052S12061 1858 2 SI MM NOT_NAMED 1858-02-26 21:00:00 NR -22.7244 53.0509 main 275 275 _____P________ -1 -22.7244 53.0509 99 3 197
1858052S12061 1858 2 SI MM NOT_NAMED 1858-02-27 00:00:00 NR -22.8859 52.9985 main 296 296 _____P________ -1 -22.8859 52.9985 99 3 197
1858052S12061 1858 2 SI MM NOT_NAMED 1858-02-27 03:00:00 NR -23.0439 52.9486 main 311 311 _____P________ -1 -23.0439 52.9486 99 3 196
1858052S12061 1858 2 SI MM NOT_NAMED 1858-02-27 06:00:00 NR -23.2000 52.9000 reunion main 325 _____O________ -1 -23.2000 52.9000 99 9.90000 3 197

About IBTrACS Database

This database is a web-friendly format of International Best Track Archive for Climate Stewardship (IBTrACS), a global best track data archive curated by NOAA dating back to 1842.

Updated: 2021-10-21